Flight Track Log - Related Links

Times and Time Zones

All times are in EDT time to prevent confusion due to time zone crossing. See the UCA5001 flight status page for this flight to view local times or setup timezone preferences in your user account.

Time Position Orientation Groundspeed Altitude Reporting Facility
EDT Latitude Longitude Course Direction KTS MPH feet Rate Location/Type
Sun 06:57:41 PM 43.1222 -77.6828 194° South 119 137 1,300  Level Cleveland Center
Sun 06:58:48 PM 43.0797 -77.6975 194° South 160 184 2,400 1,519 Climbing Cleveland Center
Sun 07:00:15 PM 43.0181 -77.7167 193° South 158 182 5,200 1,691 Climbing Cleveland Center
Sun 07:01:17 PM 42.9758 -77.7267 190° South 154 177 6,600 1,258 Climbing Cleveland Center
Sun 07:02:19 PM 42.9258 -77.7411 192° South 173 199 7,800 1,258 Climbing Cleveland Center
Sun 07:03:21 PM 42.8722 -77.7583 193° South 196 226 9,200 1,296 Climbing Cleveland Center
Sun 07:04:24 PM 42.8469 -77.8219 242° Southwest 195 224 10,500 1,344 Climbing Cleveland Center
Sun 07:05:26 PM 42.8178 -77.9008 243° Southwest 197 227 12,000 1,161 Climbing Cleveland Center
Sun 07:06:28 PM 42.7914 -77.9689 242° Southwest 206 237 12,900 726 Climbing Cleveland Center
Sun 07:07:30 PM 42.7628 -78.0475 244° Southwest 233 268 13,500 919 Climbing Cleveland Center
Sun 07:08:32 PM 42.7328 -78.1214 241° Southwest 226 260 14,800 1,113 Climbing Cleveland Center
Sun 07:09:34 PM 42.7067 -78.1925 243° Southwest 214 246 15,800 532 Climbing Cleveland Center
Sun 07:10:36 PM 42.6717 -78.2861 243° Southwest 227 261 15,900 48 Climbing Cleveland Center
Sun 07:11:38 PM 42.6358 -78.3750 241° Southwest 262 302 15,900  Level Cleveland Center
Sun 07:12:40 PM 42.6017 -78.4636 242° Southwest 266 306 15,900  Level Cleveland Center
Sun 07:13:42 PM 42.5678 -78.5550 243° Southwest 270 311 15,900  Level Cleveland Center
Sun 07:14:44 PM 42.5328 -78.6456 242° Southwest 272 313 15,900  Level Cleveland Center
Sun 07:15:46 PM 42.4986 -78.7356 243° Southwest 271 312 15,900  Level Cleveland Center
Sun 07:16:48 PM 42.4550 -78.8442 241° Southwest 272 313 15,900  Level Cleveland Center
Sun 07:17:51 PM 42.4203 -78.9364 243° Southwest 270 311 15,900  Level Cleveland Center
Sun 07:18:53 PM 42.3842 -79.0269 242° Southwest 276 318 15,900  Level Cleveland Center
Sun 07:19:55 PM 42.3486 -79.1183 242° Southwest 278 320 15,900  Level Cleveland Center
Sun 07:20:57 PM 42.3142 -79.2056 242° Southwest 270 311 15,900 48 Level Cleveland Center
Sun 07:21:59 PM 42.2717 -79.3133 242° Southwest 274 315 16,000 48 Climbing Cleveland Center
Sun 07:23:01 PM 42.2358 -79.4025 242° Southwest 276 318 16,000  Level Cleveland Center
Sun 07:24:03 PM 42.2000 -79.4944 242° Southwest 273 314 16,000  Level Cleveland Center
Sun 07:25:05 PM 42.1650 -79.5819 242° Southwest 276 318 16,000  Level Cleveland Center
Sun 07:26:07 PM 42.1281 -79.6742 242° Southwest 283 326 16,000  Level Cleveland Center
Sun 07:27:09 PM 42.0856 -79.7800 242° Southwest 273 314 16,000  Level Cleveland Center
Sun 07:28:11 PM 42.0497 -79.8700 242° Southwest 275 316 16,000  Level Cleveland Center
Sun 07:29:13 PM 42.0133 -79.9581 241° Southwest 273 314 16,000  Level Cleveland Center
Sun 07:30:15 PM 41.9767 -80.0486 241° Southwest 274 315 16,000  Level Cleveland Center
Sun 07:31:18 PM 41.9406 -80.1397 242° Southwest 273 314 16,000  Level Cleveland Center
Sun 07:32:20 PM 41.8972 -80.2447 241° Southwest 273 314 16,000 -194 Level Cleveland Center
Sun 07:33:22 PM 41.8594 -80.3358 241° Southwest 276 318 15,600 -581 Descending Cleveland Center
Sun 07:34:24 PM 41.8186 -80.4339 241° Southwest 295 339 14,800 -774 Descending Cleveland Center
Sun 07:35:26 PM 41.7786 -80.5319 241° Southwest 298 343 14,000 -823 Descending Cleveland Center
Sun 07:36:28 PM 41.7383 -80.6297 241° Southwest 297 342 13,100 -823 Descending Cleveland Center
Sun 07:37:30 PM 41.6983 -80.7272 241° Southwest 298 343 12,300 -774 Descending Cleveland Center
Sun 07:38:32 PM 41.6753 -80.8281 253° West 284 327 11,500 -823 Descending Cleveland Center
Sun 07:39:34 PM 41.6533 -80.9497 256° West 286 329 10,600 -866 Descending Cleveland Center
Sun 07:40:09 PM 41.6464 -81.0078 261° West 283 326 10,100 -821 Descending Cleveland Center
Sun 07:41:09 PM 41.6292 -81.1114 257° West 279 321 9,300 -574 Descending Cleveland Center
Sun 07:42:04 PM 41.6150 -81.2014 258° West 271 312 9,000 -462 Descending Cleveland Center
Sun 07:42:40 PM 41.6069 -81.2525 258° West 273 314 8,600 -1,041 Descending Cleveland Center
Sun 07:43:42 PM 41.5867 -81.3508 255° West 270 311 7,300 -1,210 Descending Cleveland Center
Sun 07:44:44 PM 41.5681 -81.4453 255° West 267 307 6,100 -1,065 Descending Cleveland Center
Sun 07:45:46 PM 41.5500 -81.5336 255° West 253 291 5,100 -1,016 Descending Cleveland Center
Sun 07:46:48 PM 41.5264 -81.6336 253° West 244 281 4,000 -816 Descending Cleveland Center
Sun 07:47:51 PM 41.4989 -81.7117 245° Southwest 237 273 3,400 -720 Descending Cleveland Center
Sun 07:48:53 PM 41.4603 -81.7658 226° Southwest 211 243 2,500 -919 Descending Cleveland Center
Sun 07:49:55 PM 41.4383 -81.8028 232° Southwest 152 175 1,500 -774 Descending Cleveland Center
Sun 07:50:57 PM 41.4156 -81.8364 228° Southwest 129 148 900 -581 Descending Cleveland Center
Sun 07:52:00 PM 41.4000 -81.8500 252° West  Level FlightAware Approximate

Login

Don't have an account? Register now (free) for customized features, flight alerts, and more!